Time;durP1;ratioP1;P1;durP2;ratioP2;P2;SDS_P1;SDS_P2;PMS_P1;PMS_P2;Temp;Humidity;BMP_temperature;BMP_pressure;BME280_temperature;BME280_humidity;BME280_pressure;Samples;Min_cycle;Max_cycle;Signal;HPM_P1;HPM_P2
2022/07/25 00:01:49;;;;;;;;;;;;;;;22.53;50.00;98607.25;2620164;39;20253;-67
2022/07/25 00:04:18;;;;;;;;;;;;;;;22.51;50.27;98604.03;2619602;47;19943;-67
2022/07/25 00:06:48;;;;;;;;;;;;;;;22.53;50.34;98595.66;2619358;54;19938;-68
2022/07/25 00:09:17;;;;;;;;;;;;;;;22.54;50.77;98591.91;2619233;54;19947;-67
2022/07/25 00:11:47;;;;;;;;;;;;;;;22.53;50.04;98583.00;2619800;54;19942;-67
2022/07/25 00:14:16;;;;;;;;;;;;;;;22.45;50.17;98589.78;2619229;54;19946;-67
2022/07/25 00:16:48;;;;;;;;;;;;;;;22.43;50.21;98591.13;2618581;47;19950;-67
2022/07/25 00:19:18;;;;;;;;;;;;;;;22.37;50.38;98584.97;2619063;54;19946;-66
2022/07/25 00:21:47;;;;;;;;;;;;;;;22.34;50.12;98582.03;2620935;54;19946;-66
2022/07/25 00:24:16;;;;;;;;;;;;;;;22.29;50.40;98582.84;2620377;54;19981;-66
2022/07/25 00:26:46;;;;;;;;;;;;;;;22.28;50.27;98575.03;2620287;54;19958;-66
2022/07/25 00:29:15;;;;;;;;;;;;;;;22.32;50.44;98573.41;2618725;54;19943;-66
2022/07/25 00:31:45;;;;;;;;;;;;;;;22.23;50.42;98565.88;2619524;54;19939;-66
2022/07/25 00:34:17;;;;;;;;;;;;;;;22.28;50.13;98566.94;2618623;54;19943;-66
2022/07/25 00:36:46;;;;;;;;;;;;;;;22.22;50.70;98556.22;2618716;54;19954;-66
2022/07/25 00:39:16;;;;;;;;;;;;;;;22.19;50.75;98555.94;2618365;54;19950;-66
2022/07/25 00:41:45;;;;;;;;;;;;;;;22.16;50.35;98557.28;2618478;54;19945;-66
2022/07/25 00:44:23;;;;;;;;;;;;;;;22.20;50.45;98552.97;2619266;39;20346;-66
2022/07/25 00:46:53;;;;;;;;;;;;;;;22.23;50.38;98547.03;2618212;54;19969;-67
2022/07/25 00:49:25;;;;;;;;;;;;;;;22.29;50.51;98560.47;2617884;54;19946;-67
2022/07/25 00:51:55;;;;;;;;;;;;;;;22.32;50.64;98557.25;2618295;54;19954;-66
2022/07/25 00:54:24;;;;;;;;;;;;;;;22.24;50.93;98547.84;2619665;54;19947;-66
2022/07/25 00:56:54;;;;;;;;;;;;;;;22.26;50.90;98548.38;2620088;54;19938;-66
2022/07/25 00:59:23;;;;;;;;;;;;;;;22.22;50.94;98550.03;2620226;54;20438;-66
2022/07/25 01:01:53;;;;;;;;;;;;;;;21.95;51.95;98553.81;2619364;54;19947;-69
2022/07/25 01:04:25;;;;;;;;;;;;;;;21.81;52.51;98543.91;2617888;54;19938;-66
2022/07/25 01:06:54;;;;;;;;;;;;;;;21.87;52.16;98542.81;2618244;54;19938;-66
2022/07/25 01:09:24;;;;;;;;;;;;;;;21.80;52.33;98536.88;2618579;54;19939;-64
2022/07/25 01:11:53;;;;;;;;;;;;;;;21.88;51.95;98539.03;2617835;54;19954;-65
2022/07/25 01:14:23;;;;;;;;;;;;;;;21.90;51.99;98535.00;2620575;54;19946;-64
2022/07/25 01:16:52;;;;;;;;;;;;;;;21.94;51.70;98532.56;2620831;47;19970;-64
2022/07/25 01:19:25;;;;;;;;;;;;;;;21.91;51.47;98531.22;2621488;54;19997;-64
2022/07/25 01:21:57;;;;;;;;;;;;;;;21.76;52.14;98529.38;2621991;54;19939;-64
2022/07/25 01:24:26;;;;;;;;;;;;;;;21.71;52.87;98536.63;2619721;54;19945;-64
2022/07/25 01:26:56;;;;;;;;;;;;;;;21.78;52.80;98529.09;2622397;54;19951;-65
2022/07/25 01:29:25;;;;;;;;;;;;;;;21.81;52.49;98530.47;2621700;47;19950;-64
2022/07/25 01:31:55;;;;;;;;;;;;;;;21.84;52.46;98532.56;2623208;54;19945;-63
2022/07/25 01:34:24;;;;;;;;;;;;;;;21.88;52.34;98531.78;2620712;54;19970;-64
2022/07/25 01:36:53;;;;;;;;;;;;;;;21.89;52.53;98536.09;2620842;54;19954;-66
2022/07/25 01:39:26;;;;;;;;;;;;;;;21.76;52.22;98529.38;2620653;50;19943;-65
2022/07/25 01:41:55;;;;;;;;;;;;;;;21.53;52.94;98527.25;2623136;54;19946;-63
2022/07/25 01:44:24;;;;;;;;;;;;;;;21.37;53.05;98520.28;2623821;54;19953;-65
2022/07/25 01:46:54;;;;;;;;;;;;;;;21.21;53.99;98514.06;2623244;54;20038;-65
2022/07/25 01:49:25;;;;;;;;;;;;;;;21.03;53.93;98515.41;2623037;47;20427;-65
2022/07/25 01:51:54;;;;;;;;;;;;;;;21.11;53.80;98512.19;2622815;54;20046;-65
2022/07/25 01:54:26;;;;;;;;;;;;;;;21.05;54.26;98505.19;2623157;54;19947;-65
2022/07/25 01:56:56;;;;;;;;;;;;;;;20.95;54.63;98508.69;2622586;54;19958;-65
2022/07/25 01:59:25;;;;;;;;;;;;;;;20.91;54.63;98506.81;2623082;54;20023;-65
2022/07/25 02:01:55;;;;;;;;;;;;;;;20.96;54.66;98501.44;2622739;54;19950;-65
2022/07/25 02:04:24;;;;;;;;;;;;;;;20.95;54.82;98500.63;2622329;54;19970;-66
2022/07/25 02:06:54;;;;;;;;;;;;;;;20.95;55.15;98497.94;2621444;54;19943;-66
2022/07/25 02:09:23;;;;;;;;;;;;;;;20.99;54.92;98501.69;2621513;54;19946;-66
2022/07/25 02:11:57;;;;;;;;;;;;;;;21.00;55.14;98502.50;2621585;54;19939;-66
2022/07/25 02:14:26;;;;;;;;;;;;;;;20.99;54.80;98504.38;2621198;54;19969;-67
2022/07/25 02:16:55;;;;;;;;;;;;;;;20.88;55.40;98504.63;2621725;54;19939;-67
2022/07/25 02:19:25;;;;;;;;;;;;;;;20.67;55.96;98498.44;2621135;54;19947;-65
2022/07/25 02:21:54;;;;;;;;;;;;;;;20.70;55.82;98493.34;2621455;54;19945;-67
2022/07/25 02:24:24;;;;;;;;;;;;;;;20.66;56.23;98494.13;2620832;54;19939;-65
2022/07/25 02:26:53;;;;;;;;;;;;;;;20.66;55.70;98494.13;2620378;54;19954;-66
2022/07/25 02:29:25;;;;;;;;;;;;;;;20.58;56.15;98490.09;2619772;54;19939;-67
2022/07/25 02:31:54;;;;;;;;;;;;;;;20.51;56.13;98493.00;2619871;47;19946;-67
2022/07/25 02:34:24;;;;;;;;;;;;;;;20.48;56.51;98493.53;2619501;39;20334;-67
2022/07/25 02:36:53;;;;;;;;;;;;;;;20.50;56.85;98493.28;2619215;54;19947;-64
2022/07/25 02:39:24;;;;;;;;;;;;;;;20.55;56.25;98484.44;2618679;54;19943;-65
2022/07/25 02:41:53;;;;;;;;;;;;;;;20.62;56.01;98480.44;2619029;54;20326;-65
2022/07/25 02:44:25;;;;;;;;;;;;;;;20.67;55.96;98480.44;2618577;47;19939;-65
2022/07/25 02:46:55;;;;;;;;;;;;;;;20.73;55.93;98479.34;2620167;54;19939;-66
2022/07/25 02:49:24;;;;;;;;;;;;;;;20.63;55.75;98482.03;2619526;54;19957;-65
2022/07/25 02:51:53;;;;;;;;;;;;;;;20.33;56.56;98477.38;2620758;54;19943;-66
2022/07/25 02:54:23;;;;;;;;;;;;;;;20.41;57.25;98473.34;2619813;47;19939;-65
2022/07/25 02:56:52;;;;;;;;;;;;;;;20.50;56.80;98475.28;2620216;54;19953;-66
2022/07/25 02:59:22;;;;;;;;;;;;;;;20.47;56.40;98478.47;2619061;47;19946;-66
2022/07/25 03:01:54;;;;;;;;;;;;;;;20.45;56.70;98474.44;2619010;54;19959;-64
2022/07/25 03:04:23;;;;;;;;;;;;;;;20.50;57.00;98477.97;2619366;54;19942;-64
2022/07/25 03:06:53;;;;;;;;;;;;;;;20.49;56.78;98480.91;2619728;54;19998;-64
2022/07/25 03:09:22;;;;;;;;;;;;;;;20.54;56.61;98480.94;2619613;54;19947;-64
2022/07/25 03:11:51;;;;;;;;;;;;;;;20.58;56.37;98476.66;2619840;54;19938;-63
2022/07/25 03:14:21;;;;;;;;;;;;;;;20.61;56.64;98473.41;2620835;54;19947;-64
2022/07/25 03:16:50;;;;;;;;;;;;;;;20.49;56.47;98470.16;2621763;54;20034;-65
2022/07/25 03:19:23;;;;;;;;;;;;;;;20.37;56.47;98470.41;2620834;47;19946;-65
2022/07/25 03:21:52;;;;;;;;;;;;;;;20.25;56.92;98481.38;2621558;54;19938;-64
2022/07/25 03:24:21;;;;;;;;;;;;;;;20.14;57.74;98481.59;2620825;54;19943;-63
2022/07/25 03:26:51;;;;;;;;;;;;;;;20.16;57.60;98476.75;2619886;39;20319;-64
2022/07/25 03:29:20;;;;;;;;;;;;;;;20.24;57.54;98471.69;2619609;47;19951;-63
2022/07/25 03:31:50;;;;;;;;;;;;;;;20.31;57.18;98463.41;2620066;54;20014;-63
2022/07/25 03:34:20;;;;;;;;;;;;;;;20.39;57.16;98475.50;2620644;54;19949;-65
2022/07/25 03:36:52;;;;;;;;;;;;;;;20.36;56.74;98473.34;2624763;54;19953;-65
2022/07/25 03:39:23;;;;;;;;;;;;;;;20.36;56.79;98462.59;2624647;46;19953;-66
2022/07/25 03:41:53;;;;;;;;;;;;;;;20.35;57.19;98464.47;2624996;54;19946;-64
2022/07/25 03:44:22;;;;;;;;;;;;;;;20.30;57.47;98467.16;2623945;54;19943;-64
2022/07/25 03:46:52;;;;;;;;;;;;;;;20.27;57.30;98460.44;2624553;54;19946;-65
2022/07/25 03:49:21;;;;;;;;;;;;;;;20.24;57.11;98458.25;2623780;47;19947;-65
2022/07/25 03:51:53;;;;;;;;;;;;;;;20.12;57.60;98455.00;2624180;39;20364;-63
2022/07/25 03:54:22;;;;;;;;;;;;;;;19.97;57.55;98452.28;2623441;54;19943;-63
2022/07/25 03:56:54;;;;;;;;;;;;;;;19.89;58.47;98445.53;2624358;54;19946;-65
2022/07/25 03:59:23;;;;;;;;;;;;;;;19.81;58.65;98446.03;2624569;54;19938;-64
2022/07/25 04:01:53;;;;;;;;;;;;;;;19.74;58.81;98440.91;2592318;54;19953;-68
2022/07/25 04:04:22;;;;;;;;;;;;;;;19.64;59.13;98440.88;2618642;54;19953;-68
2022/07/25 04:06:54;;;;;;;;;;;;;;;19.62;59.08;98439.50;2619285;54;19953;-69
2022/07/25 04:09:24;;;;;;;;;;;;;;;19.63;59.32;98438.41;2618670;54;19947;-65
2022/07/25 04:11:54;;;;;;;;;;;;;;;19.59;59.12;98435.41;2619061;54;20426;-66
2022/07/25 04:14:27;;;;;;;;;;;;;;;19.57;59.60;98440.25;2619345;54;19939;-66
2022/07/25 04:16:57;;;;;;;;;;;;;;;19.60;59.54;98431.69;2618334;54;19953;-67
2022/07/25 04:19:26;;;;;;;;;;;;;;;19.53;59.69;98428.44;2618931;54;19946;-67
2022/07/25 04:21:59;;;;;;;;;;;;;;;19.56;59.65;98427.91;2618413;47;19966;-67
2022/07/25 04:24:29;;;;;;;;;;;;;;;19.47;59.64;98427.59;2618866;54;19947;-67
2022/07/25 04:26:58;;;;;;;;;;;;;;;19.61;59.28;98433.34;2618937;54;20452;-66
2022/07/25 04:29:28;;;;;;;;;;;;;;;19.43;59.49;98426.50;2620368;39;20329;-66
2022/07/25 04:31:57;;;;;;;;;;;;;;;19.57;59.39;98432.22;2619050;39;20318;-66
2022/07/25 04:34:27;;;;;;;;;;;;;;;19.63;59.12;98433.88;2618509;54;19954;-67
2022/07/25 04:36:56;;;;;;;;;;;;;;;19.61;59.38;98427.97;2618532;54;19939;-66
2022/07/25 04:39:28;;;;;;;;;;;;;;;19.63;59.66;98430.38;2619000;39;20361;-66
2022/07/25 04:41:57;;;;;;;;;;;;;;;19.83;59.52;98435.03;2618206;54;19957;-66
2022/07/25 04:44:27;;;;;;;;;;;;;;;19.90;58.83;98431.06;2618958;54;19946;-68
2022/07/25 04:46:56;;;;;;;;;;;;;;;19.84;59.21;98429.44;2619309;39;20323;-66
2022/07/25 04:49:26;;;;;;;;;;;;;;;19.89;59.26;98425.97;2618114;54;19957;-66
2022/07/25 04:51:55;;;;;;;;;;;;;;;20.04;58.75;98421.47;2618977;54;19946;-67
2022/07/25 04:54:27;;;;;;;;;;;;;;;20.24;58.56;98420.69;2618609;54;19996;-66
2022/07/25 04:56:56;;;;;;;;;;;;;;;20.43;58.26;98418.31;2619296;54;19950;-66
2022/07/25 04:59:26;;;;;;;;;;;;;;;20.56;58.18;98411.66;2618026;54;20427;-66
2022/07/25 05:01:55;;;;;;;;;;;;;;;20.70;57.50;98409.28;2618443;54;19954;-67
2022/07/25 05:04:25;;;;;;;;;;;;;;;20.84;57.43;98410.34;2618801;54;20410;-66
2022/07/25 05:06:55;;;;;;;;;;;;;;;20.95;57.02;98403.09;2618846;54;19942;-66
2022/07/25 05:09:24;;;;;;;;;;;;;;;20.78;56.93;98406.06;2619038;39;20350;-66
2022/07/25 05:11:56;;;;;;;;;;;;;;;20.64;57.28;98413.00;2618867;54;19950;-67
2022/07/25 05:14:26;;;;;;;;;;;;;;;20.71;57.42;98411.69;2618708;54;19947;-66
2022/07/25 05:16:55;;;;;;;;;;;;;;;20.86;57.01;98405.53;2618625;54;19946;-66
2022/07/25 05:19:24;;;;;;;;;;;;;;;21.01;56.61;98396.63;2618566;54;19975;-66
2022/07/25 05:21:54;;;;;;;;;;;;;;;21.01;56.45;98399.31;2618586;54;19994;-66
2022/07/25 05:24:25;;;;;;;;;;;;;;;21.06;56.57;98396.63;2618602;54;19955;-66
2022/07/25 05:26:57;;;;;;;;;;;;;;;21.03;56.32;98400.66;2618887;54;19947;-67
2022/07/25 05:29:26;;;;;;;;;;;;;;;21.12;56.30;98410.88;2617936;54;20441;-67
2022/07/25 05:31:55;;;;;;;;;;;;;;;21.30;56.58;98404.91;2618441;54;19948;-67
2022/07/25 05:34:25;;;;;;;;;;;;;;;21.40;56.05;98398.75;2618099;54;20075;-66
2022/07/25 05:36:55;;;;;;;;;;;;;;;21.39;55.33;98397.94;2618533;54;19958;-66
2022/07/25 05:39:24;;;;;;;;;;;;;;;21.50;55.52;98398.72;2618451;54;19970;-68
2022/07/25 05:41:56;;;;;;;;;;;;;;;21.65;55.22;98404.06;2617648;52;20422;-67
2022/07/25 05:44:26;;;;;;;;;;;;;;;21.71;54.54;98408.31;2618831;54;20426;-67
2022/07/25 05:46:55;;;;;;;;;;;;;;;21.75;55.07;98406.69;2618475;54;19954;-66
2022/07/25 05:49:24;;;;;;;;;;;;;;;21.87;54.44;98401.00;2618608;54;19946;-69
2022/07/25 05:51:54;;;;;;;;;;;;;;;21.92;54.47;98401.00;2618079;47;19946;-66
2022/07/25 05:54:23;;;;;;;;;;;;;;;21.90;54.46;98405.84;2618665;54;19953;-66
2022/07/25 05:56:58;;;;;;;;;;;;;;;21.87;54.67;98397.50;2618675;54;19954;-66
2022/07/25 05:59:27;;;;;;;;;;;;;;;22.02;54.48;98405.50;2618486;54;19954;-66
2022/07/25 06:01:57;;;;;;;;;;;;;;;22.18;54.41;98401.69;2617876;54;19946;-66
2022/07/25 06:04:26;;;;;;;;;;;;;;;22.30;53.45;98384.41;2618673;54;19986;-66
2022/07/25 06:06:56;;;;;;;;;;;;;;;22.31;53.65;98388.69;2618722;54;19954;-67
2022/07/25 06:09:26;;;;;;;;;;;;;;;22.33;53.11;98397.28;2619341;39;20345;-67
2022/07/25 06:11:58;;;;;;;;;;;;;;;22.34;52.98;98386.25;2621693;39;20345;-68
2022/07/25 06:14:31;;;;;;;;;;;;;;;22.43;52.92;98384.56;2618835;47;19991;-66
2022/07/25 06:17:02;;;;;;;;;;;;;;;22.52;52.65;98389.38;2619916;54;19954;-66
2022/07/25 06:19:31;;;;;;;;;;;;;;;22.53;52.64;98389.06;2620393;47;19942;-66
2022/07/25 06:22:00;;;;;;;;;;;;;;;22.61;52.77;98387.66;2620064;54;19946;-67
2022/07/25 06:24:30;;;;;;;;;;;;;;;22.72;52.71;98387.31;2619639;54;19954;-67
2022/07/25 06:27:02;;;;;;;;;;;;;;;22.86;52.74;98383.97;2619343;47;19943;-66
2022/07/25 06:29:31;;;;;;;;;;;;;;;22.97;52.47;98375.53;2619494;54;19939;-67
2022/07/25 06:32:01;;;;;;;;;;;;;;;23.10;52.36;98376.75;2619703;54;19939;-67
2022/07/25 06:34:30;;;;;;;;;;;;;;;23.22;51.54;98373.69;2619505;54;20465;-67
2022/07/25 06:37:00;;;;;;;;;;;;;;;23.33;51.48;98374.41;2620138;54;19947;-66
2022/07/25 06:39:29;;;;;;;;;;;;;;;23.43;51.73;98374.25;2619713;54;19965;-68
2022/07/25 06:42:02;;;;;;;;;;;;;;;23.48;51.09;98374.22;2621872;39;20337;-66
2022/07/25 06:44:35;;;;;;;;;;;;;;;23.58;51.00;98362.50;2620971;54;19946;-67
2022/07/25 06:47:09;;;;;;;;;;;;;;;23.71;50.83;98372.63;2620841;54;19954;-67
2022/07/25 06:49:38;;;;;;;;;;;;;;;23.81;51.09;98364.41;2620465;54;19979;-65
2022/07/25 06:52:08;;;;;;;;;;;;;;;23.91;51.04;98366.97;2621446;54;19946;-67
2022/07/25 06:54:37;;;;;;;;;;;;;;;24.07;50.72;98366.78;2623181;54;19939;-68
2022/07/25 06:57:09;;;;;;;;;;;;;;;24.20;50.10;98374.13;2622266;54;19967;-67
2022/07/25 06:59:39;;;;;;;;;;;;;;;24.30;50.10;98363.19;2622058;54;20436;-67
2022/07/25 07:02:08;;;;;;;;;;;;;;;24.30;50.01;98357.00;2624775;39;20314;-68
2022/07/25 07:04:37;;;;;;;;;;;;;;;24.36;49.70;98361.22;2624789;54;19934;-67
2022/07/25 07:07:07;;;;;;;;;;;;;;;24.48;50.21;98361.59;2624858;54;19954;-66
2022/07/25 07:09:36;;;;;;;;;;;;;;;24.62;49.49;98353.56;2623873;54;19938;-68
2022/07/25 07:12:07;;;;;;;;;;;;;;;24.77;49.47;98355.19;2623858;54;19950;-67
2022/07/25 07:14:40;;;;;;;;;;;;;;;24.88;49.09;98357.44;2623473;54;19946;-66
2022/07/25 07:17:09;;;;;;;;;;;;;;;25.04;49.03;98354.47;2623727;54;19966;-66
2022/07/25 07:19:43;;;;;;;;;;;;;;;25.22;48.44;98353.59;2622366;54;20447;-67
2022/07/25 07:22:12;;;;;;;;;;;;;;;25.32;48.71;98349.91;2621965;54;20037;-68
2022/07/25 07:24:42;;;;;;;;;;;;;;;25.43;48.12;98351.31;2621563;54;20450;-68
2022/07/25 07:27:16;;;;;;;;;;;;;;;25.55;48.01;98350.81;2620802;54;19946;-66
2022/07/25 07:29:50;;;;;;;;;;;;;;;25.66;47.75;98358.41;2620505;54;19939;-67
2022/07/25 07:32:19;;;;;;;;;;;;;;;25.78;47.35;98357.16;2621061;54;20003;-67
2022/07/25 07:34:49;;;;;;;;;;;;;;;25.96;46.89;98358.09;2622352;54;19946;-67
2022/07/25 07:37:18;;;;;;;;;;;;;;;26.07;47.05;98349.44;2621407;54;19953;-67
2022/07/25 07:39:48;;;;;;;;;;;;;;;26.19;46.98;98351.63;2623160;54;19952;-66
2022/07/25 07:42:18;;;;;;;;;;;;;;;26.30;46.44;98347.59;2624796;54;19947;-67
2022/07/25 07:44:50;;;;;;;;;;;;;;;26.48;46.17;98353.16;2624552;54;20419;-67
2022/07/25 07:47:20;;;;;;;;;;;;;;;26.62;45.77;98352.00;2624877;54;19962;-66
2022/07/25 07:49:49;;;;;;;;;;;;;;;26.81;45.62;98349.06;2624434;54;19948;-67
2022/07/25 07:52:19;;;;;;;;;;;;;;;26.97;44.78;98349.50;2625318;54;19938;-67
2022/07/25 07:57:30;;;;;;;;;;;;;;;27.25;44.00;98344.72;2624651;54;19962;-67
2022/07/25 08:00:02;;;;;;;;;;;;;;;27.42;44.02;98346.69;2624441;54;19939;-68
2022/07/25 08:02:43;;;;;;;;;;;;;;;27.56;43.91;98338.44;2624507;54;19993;-67
2022/07/25 08:05:13;;;;;;;;;;;;;;;27.71;42.59;98334.47;2624770;54;19950;-67
2022/07/25 08:07:42;;;;;;;;;;;;;;;27.88;43.06;98334.53;2622035;54;19946;-67
2022/07/25 08:10:12;;;;;;;;;;;;;;;28.05;42.15;98326.41;2619709;54;20441;-67
2022/07/25 08:12:42;;;;;;;;;;;;;;;28.18;42.08;98324.66;2619817;54;19984;-66
2022/07/25 08:15:14;;;;;;;;;;;;;;;28.33;41.46;98316.03;2619697;54;20403;-68
2022/07/25 08:17:44;;;;;;;;;;;;;;;28.64;40.36;98313.09;2619893;54;19945;-66
2022/07/25 08:20:14;;;;;;;;;;;;;;;28.78;39.98;98314.84;2619198;54;19969;-68
2022/07/25 08:23:03;;;;;;;;;;;;;;;28.99;39.64;98317.72;2620051;39;20341;-67
2022/07/25 08:25:33;;;;;;;;;;;;;;;29.08;39.11;98308.38;2619148;47;19947;-67
2022/07/25 08:28:02;;;;;;;;;;;;;;;29.15;38.84;98316.03;2619632;54;20474;-67
2022/07/25 08:30:35;;;;;;;;;;;;;;;29.27;38.93;98316.16;2619403;54;20446;-67
2022/07/25 08:33:05;;;;;;;;;;;;;;;29.41;37.83;98315.91;2619748;54;20437;-67
2022/07/25 08:35:35;;;;;;;;;;;;;;;29.57;37.99;98308.00;2620003;54;19939;-66
2022/07/25 08:38:06;;;;;;;;;;;;;;;29.69;37.16;98308.09;2620779;54;19938;-67
2022/07/25 08:40:36;;;;;;;;;;;;;;;29.73;36.29;98302.78;2620320;54;20461;-67
2022/07/25 08:43:06;;;;;;;;;;;;;;;29.90;36.99;98299.94;2619889;54;20585;-67
2022/07/25 08:45:38;;;;;;;;;;;;;;;30.09;36.01;98303.00;2619179;54;19957;-67
2022/07/25 08:48:08;;;;;;;;;;;;;;;30.21;35.08;98294.09;2620134;54;19954;-66
2022/07/25 08:50:37;;;;;;;;;;;;;;;30.36;35.43;98303.56;2619392;54;20434;-67
2022/07/25 08:53:07;;;;;;;;;;;;;;;30.50;34.92;98289.66;2619343;54;19939;-67
2022/07/25 08:55:57;;;;;;;;;;;;;;;30.55;34.59;98290.25;2619275;54;20025;-67
2022/07/25 08:58:26;;;;;;;;;;;;;;;30.74;34.66;98284.31;2618786;47;19947;-66
2022/07/25 09:00:58;;;;;;;;;;;;;;;30.94;34.37;98288.06;2618944;54;19939;-67
2022/07/25 09:03:28;;;;;;;;;;;;;;;31.15;33.73;98287.16;2619395;54;19942;-67
2022/07/25 09:05:59;;;;;;;;;;;;;;;31.31;33.15;98290.84;2623579;54;19935;-67
2022/07/25 09:08:29;;;;;;;;;;;;;;;31.40;32.63;98288.81;2618371;54;19942;-66
2022/07/25 09:10:58;;;;;;;;;;;;;;;31.54;32.42;98286.50;2619765;39;20338;-66
2022/07/25 09:13:30;;;;;;;;;;;;;;;31.66;32.26;98274.78;2620072;39;20342;-67
2022/07/25 09:16:04;;;;;;;;;;;;;;;31.84;32.51;98267.13;2619921;54;19954;-68
2022/07/25 09:18:36;;;;;;;;;;;;;;;32.09;31.73;98277.97;2619238;54;19946;-67
2022/07/25 09:21:06;;;;;;;;;;;;;;;32.25;30.83;98268.69;2619172;54;19939;-67
2022/07/25 09:23:36;;;;;;;;;;;;;;;32.27;31.02;98273.81;2619245;54;20415;-67
2022/07/25 09:26:07;;;;;;;;;;;;;;;32.39;30.64;98273.00;2619519;39;20424;-66
2022/07/25 09:28:41;;;;;;;;;;;;;;;32.40;30.92;98264.44;2619006;54;19969;-67
2022/07/25 09:31:13;;;;;;;;;;;;;;;32.38;30.89;98269.44;2618534;54;19946;-66
2022/07/25 09:33:47;;;;;;;;;;;;;;;32.37;30.07;98265.09;2618896;54;19954;-67
2022/07/25 09:36:16;;;;;;;;;;;;;;;32.28;30.44;98264.44;2619020;54;19939;-67
2022/07/25 09:38:53;;;;;;;;;;;;;;;32.26;30.73;98267.53;2619492;39;20341;-66
2022/07/25 09:41:23;;;;;;;;;;;;;;;32.33;30.65;98266.94;2619257;54;19943;-67
2022/07/25 09:43:53;;;;;;;;;;;;;;;32.50;30.92;98269.41;2619028;39;20338;-67
2022/07/25 09:46:31;;;;;;;;;;;;;;;32.68;30.60;98266.31;2619339;39;20437;-67
2022/07/25 09:49:01;;;;;;;;;;;;;;;32.75;30.21;98267.31;2619616;54;19975;-67
2022/07/25 09:51:30;;;;;;;;;;;;;;;32.72;29.95;98267.22;2620227;54;19939;-66
2022/07/25 09:54:00;;;;;;;;;;;;;;;32.78;30.02;98257.56;2619923;54;19954;-66
2022/07/25 09:56:29;;;;;;;;;;;;;;;32.83;29.06;98265.56;2619662;54;19947;-66
2022/07/25 09:59:00;;;;;;;;;;;;;;;32.87;29.34;98266.44;2621506;39;20377;-67
2022/07/25 10:01:36;;;;;;;;;;;;;;;32.96;29.20;98260.81;2621087;54;19939;-66
2022/07/25 10:04:11;;;;;;;;;;;;;;;32.98;29.43;98262.03;2620566;31;20367;-66
2022/07/25 10:06:45;;;;;;;;;;;;;;;33.25;29.33;98256.81;2620287;39;20317;-66
2022/07/25 10:09:14;;;;;;;;;;;;;;;33.59;28.76;98254.44;2619534;54;19946;-66
2022/07/25 10:11:59;;;;;;;;;;;;;;;33.71;27.79;98257.06;2619631;54;19946;-66
2022/07/25 10:14:28;;;;;;;;;;;;;;;33.60;28.23;98251.38;2620144;39;20436;-67
2022/07/25 10:17:01;;;;;;;;;;;;;;;33.56;27.69;98249.69;2619294;54;19939;-66
2022/07/25 10:19:46;;;;;;;;;;;;;;;33.66;28.16;98260.09;2618994;54;19946;-66
2022/07/25 10:22:22;;;;;;;;;;;;;;;33.83;27.56;98258.88;2619715;47;19946;-66
2022/07/25 10:25:13;;;;;;;;;;;;;;;33.77;27.43;98252.91;2628570;39;20334;-66
2022/07/25 10:27:47;;;;;;;;;;;;;;;33.74;27.27;98253.63;2624852;54;19939;-65
2022/07/25 10:30:23;;;;;;;;;;;;;;;33.76;27.34;98251.28;2624864;54;19946;-66
2022/07/25 10:33:00;;;;;;;;;;;;;;;33.74;27.29;98250.88;2624434;54;19972;-67
2022/07/25 10:35:30;;;;;;;;;;;;;;;33.61;27.31;98250.22;2624150;54;20437;-65
2022/07/25 10:38:00;;;;;;;;;;;;;;;33.54;27.29;98258.28;2619620;39;20342;-66
2022/07/25 10:40:31;;;;;;;;;;;;;;;33.38;27.55;98255.53;2618964;54;19965;-64
2022/07/25 10:43:08;;;;;;;;;;;;;;;33.26;27.75;98256.44;2618475;47;19939;-65
2022/07/25 10:45:42;;;;;;;;;;;;;;;33.16;27.72;98261.69;2619069;54;19945;-65
2022/07/25 10:48:23;;;;;;;;;;;;;;;33.02;27.66;98251.94;2619004;54;19945;-65
2022/07/25 10:50:54;;;;;;;;;;;;;;;33.17;27.46;98250.38;2618613;47;19953;-69
2022/07/25 10:53:37;;;;;;;;;;;;;;;33.24;27.75;98250.53;2619028;54;19958;-66
2022/07/25 10:56:10;;;;;;;;;;;;;;;33.23;27.38;98251.69;2619119;54;20434;-65
2022/07/25 10:58:47;;;;;;;;;;;;;;;33.25;28.01;98248.59;2618598;54;19947;-66
2022/07/25 11:01:21;;;;;;;;;;;;;;;33.14;27.83;98242.84;2619079;54;19939;-66
2022/07/25 11:03:53;;;;;;;;;;;;;;;33.07;27.89;98242.69;2618976;54;19942;-64
2022/07/25 11:06:36;;;;;;;;;;;;;;;32.97;27.83;98254.97;2619191;54;19938;-65
2022/07/25 11:09:06;;;;;;;;;;;;;;;33.08;28.31;98240.75;2618735;54;20471;-68
2022/07/25 11:11:39;;;;;;;;;;;;;;;33.17;27.98;98247.63;2619246;54;20438;-65
2022/07/25 11:14:16;;;;;;;;;;;;;;;33.39;27.90;98254.38;2618964;54;19953;-65
2022/07/25 11:16:47;;;;;;;;;;;;;;;33.65;27.48;98248.34;2619135;54;20470;-66
2022/07/25 11:19:20;;;;;;;;;;;;;;;33.77;27.55;98248.22;2618831;54;19946;-65
2022/07/25 11:21:50;;;;;;;;;;;;;;;33.64;27.58;98240.47;2618839;54;19952;-66
2022/07/25 11:24:20;;;;;;;;;;;;;;;33.70;26.91;98245.31;2618652;39;20354;-66
2022/07/25 11:26:51;;;;;;;;;;;;;;;33.74;27.35;98245.38;2618844;54;19946;-67
2022/07/25 11:29:21;;;;;;;;;;;;;;;33.91;27.35;98244.97;2618063;54;19953;-63
2022/07/25 11:31:54;;;;;;;;;;;;;;;33.98;27.12;98247.88;2619159;54;19954;-65
2022/07/25 11:34:27;;;;;;;;;;;;;;;33.93;27.42;98252.84;2620159;54;19934;-65
2022/07/25 11:36:57;;;;;;;;;;;;;;;33.83;27.33;98262.41;2619696;54;19953;-67
2022/07/25 11:39:28;;;;;;;;;;;;;;;33.75;27.38;98253.25;2619693;54;20078;-65
2022/07/25 11:42:05;;;;;;;;;;;;;;;34.01;27.23;98247.16;2626030;39;20321;-67
2022/07/25 11:44:35;;;;;;;;;;;;;;;34.05;27.34;98240.94;2625098;54;19939;-67
2022/07/25 11:47:05;;;;;;;;;;;;;;;33.80;27.34;98252.16;2623173;39;20357;-66
2022/07/25 11:49:47;;;;;;;;;;;;;;;33.53;27.67;98245.72;2622949;54;19947;-67
2022/07/25 11:52:21;;;;;;;;;;;;;;;33.30;27.86;98237.34;2623426;54;20469;-66
2022/07/25 11:54:55;;;;;;;;;;;;;;;33.06;28.72;98234.81;2622467;54;19950;-67
2022/07/25 11:57:25;;;;;;;;;;;;;;;32.95;28.95;98229.91;2623407;54;19945;-67
2022/07/25 11:59:54;;;;;;;;;;;;;;;32.77;29.34;98228.63;2622714;54;19964;-66
2022/07/25 12:02:29;;;;;;;;;;;;;;;32.67;30.35;98231.91;2621765;54;20433;-66
2022/07/25 12:05:04;;;;;;;;;;;;;;;32.69;30.75;98230.38;2622460;54;19941;-66
2022/07/25 12:07:38;;;;;;;;;;;;;;;32.87;30.48;98228.13;2623127;54;20034;-66
2022/07/25 12:10:09;;;;;;;;;;;;;;;33.09;30.14;98223.16;2624732;39;20338;-67
2022/07/25 12:12:47;;;;;;;;;;;;;;;33.42;29.75;98237.22;2623452;54;19943;-67
2022/07/25 12:15:17;;;;;;;;;;;;;;;33.64;29.28;98224.03;2623060;54;19989;-68
2022/07/25 12:17:47;;;;;;;;;;;;;;;33.57;29.02;98230.16;2623187;54;19939;-67
2022/07/25 12:20:20;;;;;;;;;;;;;;;33.70;29.21;98219.84;2622218;54;19946;-65
2022/07/25 12:22:50;;;;;;;;;;;;;;;33.85;28.97;98220.94;2621953;54;19967;-68
2022/07/25 12:25:20;;;;;;;;;;;;;;;34.10;28.76;98213.25;2621920;54;19947;-67
2022/07/25 12:27:50;;;;;;;;;;;;;;;34.07;28.19;98209.28;2623240;54;19954;-67
2022/07/25 12:30:20;;;;;;;;;;;;;;;33.89;28.21;98203.41;2623254;54;19943;-67
2022/07/25 12:32:50;;;;;;;;;;;;;;;34.07;28.23;98212.00;2622507;54;19939;-67
2022/07/25 12:35:22;;;;;;;;;;;;;;;34.32;27.84;98201.50;2621662;54;19962;-67
2022/07/25 12:37:52;;;;;;;;;;;;;;;34.62;27.49;98204.41;2623388;54;19938;-67
2022/07/25 12:40:22;;;;;;;;;;;;;;;34.73;26.70;98190.84;2623963;54;19957;-67
2022/07/25 12:42:52;;;;;;;;;;;;;;;34.60;26.44;98189.47;2624317;54;20010;-66
2022/07/25 12:45:22;;;;;;;;;;;;;;;34.43;26.36;98190.72;2623154;47;19939;-63
2022/07/25 12:47:51;;;;;;;;;;;;;;;34.42;25.74;98191.88;2623617;54;19946;-67
2022/07/25 12:50:24;;;;;;;;;;;;;;;34.33;26.00;98197.59;2622260;54;19954;-66
2022/07/25 12:52:54;;;;;;;;;;;;;;;34.25;26.10;98212.34;2622445;39;20334;-65
2022/07/25 16:17:40;;;;;;;;;;;;;;;32.57;24.92;98289.88;2618467;46;20093;-67
2022/07/25 16:20:10;;;;;;;;;;;;;;;32.32;25.28;98300.91;2617875;54;19942;-68
2022/07/25 16:22:40;;;;;;;;;;;;;;;31.99;26.04;98296.47;2618292;54;19939;-66
2022/07/25 16:25:10;;;;;;;;;;;;;;;31.76;26.77;98301.63;2618717;39;20345;-66
2022/07/25 16:27:39;;;;;;;;;;;;;;;31.66;26.92;98301.28;2618141;54;19943;-66
2022/07/25 16:30:09;;;;;;;;;;;;;;;31.65;26.83;98302.44;2617262;54;19957;-68
2022/07/25 16:32:41;;;;;;;;;;;;;;;31.50;26.65;98303.94;2617314;54;19954;-67